createdAt,value
2018-05-07T00:01:07.190Z,14.74
2018-05-07T00:03:35.577Z,14.72
2018-05-07T00:06:03.941Z,14.68
2018-05-07T00:08:32.299Z,14.62
2018-05-07T00:11:00.636Z,14.44
2018-05-07T00:13:28.958Z,14.60
2018-05-07T00:15:57.303Z,14.68
2018-05-07T00:18:25.643Z,14.54
2018-05-07T00:20:53.972Z,14.56
2018-05-07T00:23:22.356Z,14.53
2018-05-07T00:25:50.688Z,14.34
2018-05-07T00:28:19.043Z,14.30
2018-05-07T00:30:47.349Z,14.35
2018-05-07T00:33:15.672Z,14.11
2018-05-07T00:35:44.006Z,14.24
2018-05-07T00:38:12.325Z,14.20
2018-05-07T00:40:40.661Z,14.39
2018-05-07T00:43:08.967Z,14.29
2018-05-07T00:45:37.301Z,14.30
2018-05-07T00:48:05.630Z,14.31
2018-05-07T00:50:34.021Z,14.32
2018-05-07T00:53:02.339Z,14.20
2018-05-07T00:55:30.636Z,14.33
2018-05-07T00:57:58.981Z,14.11
2018-05-07T01:00:27.324Z,14.16
2018-05-07T01:02:55.668Z,14.31
2018-05-07T01:05:23.980Z,14.20
2018-05-07T01:07:52.320Z,14.05
2018-05-07T01:10:20.702Z,14.08
2018-05-07T01:12:49.106Z,14.07
2018-05-07T01:15:17.357Z,14.03
2018-05-07T01:17:45.883Z,13.88
2018-05-07T01:20:14.195Z,13.75
2018-05-07T01:22:42.530Z,13.82
2018-05-07T01:25:10.838Z,13.79
2018-05-07T01:27:39.269Z,13.72
2018-05-07T01:30:07.597Z,13.80
2018-05-07T01:32:36.037Z,13.69
2018-05-07T01:35:04.405Z,13.63
2018-05-07T01:37:32.892Z,13.67
2018-05-07T01:40:01.218Z,13.65
2018-05-07T01:42:29.531Z,13.54
2018-05-07T01:44:57.860Z,13.57
2018-05-07T01:47:26.202Z,13.44
2018-05-07T01:49:54.580Z,13.50
2018-05-07T01:52:22.959Z,13.39
2018-05-07T01:54:51.284Z,13.44
2018-05-07T01:57:19.634Z,13.36
2018-05-07T01:59:47.990Z,13.18
2018-05-07T02:02:17.259Z,13.17
2018-05-07T02:04:46.598Z,13.29
2018-05-07T02:07:14.966Z,13.30
2018-05-07T02:09:43.305Z,13.49
2018-05-07T02:12:11.622Z,13.37
2018-05-07T02:14:39.957Z,13.38
2018-05-07T02:17:08.303Z,13.24
2018-05-07T02:19:36.644Z,13.07
2018-05-07T02:22:05.053Z,13.07
2018-05-07T02:24:33.405Z,13.15
2018-05-07T02:27:01.721Z,13.04
2018-05-07T02:29:30.025Z,13.05
2018-05-07T02:31:58.456Z,13.04
2018-05-07T02:34:26.830Z,12.82
2018-05-07T02:36:55.240Z,12.98
2018-05-07T02:39:23.544Z,13.04
2018-05-07T02:41:51.946Z,12.66
2018-05-07T02:44:20.357Z,12.70
2018-05-07T02:46:49.651Z,12.80
2018-05-07T02:49:17.965Z,12.85
2018-05-07T02:51:46.390Z,12.90
2018-05-07T02:54:14.713Z,12.81
2018-05-07T02:56:43.047Z,12.59
2018-05-07T02:59:11.354Z,12.52
2018-05-07T03:01:39.777Z,12.68
2018-05-07T03:04:08.185Z,12.68
2018-05-07T03:06:36.534Z,12.69
2018-05-07T03:09:04.838Z,12.67
2018-05-07T03:11:33.158Z,12.42
2018-05-07T03:14:01.504Z,12.52
2018-05-07T03:16:29.820Z,12.52
2018-05-07T03:18:58.290Z,12.71
2018-05-07T03:21:26.601Z,12.69
2018-05-07T03:23:55.010Z,12.64
2018-05-07T03:26:23.325Z,12.64
2018-05-07T03:28:51.662Z,12.54
2018-05-07T03:31:20.909Z,12.59
2018-05-07T03:33:49.334Z,12.57
2018-05-07T03:36:17.716Z,12.49
2018-05-07T03:38:46.080Z,12.38
2018-05-07T03:41:14.432Z,12.36
2018-05-07T03:43:42.808Z,12.33
2018-05-07T03:46:11.129Z,12.33
2018-05-07T03:48:39.564Z,12.25
2018-05-07T03:51:07.803Z,12.26
2018-05-07T03:53:36.140Z,12.21
2018-05-07T03:56:04.536Z,12.33
2018-05-07T03:58:32.890Z,12.31
2018-05-07T04:01:01.238Z,12.33
2018-05-07T04:03:29.680Z,12.42
2018-05-07T04:05:57.993Z,12.24
2018-05-07T04:08:26.337Z,12.28
2018-05-07T04:10:54.705Z,12.23
2018-05-07T04:13:23.025Z,11.98
2018-05-07T04:15:51.368Z,12.21
2018-05-07T04:18:31.443Z,12.15
2018-05-07T04:21:15.120Z,12.12
2018-05-07T04:23:55.421Z,12.12
2018-05-07T04:26:24.676Z,12.30
2018-05-07T04:28:53.080Z,12.21
2018-05-07T04:31:21.460Z,12.13
2018-05-07T04:33:49.878Z,12.19
2018-05-07T04:36:18.120Z,12.24
2018-05-07T04:38:46.445Z,12.35
2018-05-07T04:41:14.921Z,12.36
2018-05-07T04:43:43.213Z,12.46
2018-05-07T04:46:11.545Z,12.23
2018-05-07T04:48:39.929Z,12.10
2018-05-07T04:51:08.297Z,12.14
2018-05-07T04:53:36.693Z,12.14
2018-05-07T04:56:05.025Z,12.14
2018-05-07T04:58:33.340Z,12.19
2018-05-07T05:01:01.733Z,12.27
2018-05-07T05:03:30.029Z,12.22
2018-05-07T05:05:58.370Z,12.28
2018-05-07T05:08:27.620Z,12.33
2018-05-07T05:10:56.036Z,12.37
2018-05-07T05:13:24.374Z,12.39
2018-05-07T05:15:52.696Z,12.43
2018-05-07T05:18:21.076Z,12.47
2018-05-07T05:20:49.420Z,12.52
2018-05-07T05:23:17.837Z,12.55
2018-05-07T05:25:46.170Z,12.61
2018-05-07T05:28:14.581Z,12.74
2018-05-07T05:30:43.001Z,12.73
2018-05-07T05:33:11.310Z,12.84
2018-05-07T05:35:39.728Z,12.89
2018-05-07T05:38:08.077Z,12.84
2018-05-07T05:40:36.373Z,12.97
2018-05-07T05:43:04.709Z,12.97
2018-05-07T05:45:33.019Z,12.98
2018-05-07T05:48:01.431Z,12.96
2018-05-07T05:50:29.730Z,13.14
2018-05-07T05:52:58.065Z,13.18
2018-05-07T05:55:26.389Z,13.20
2018-05-07T05:57:54.757Z,13.16
2018-05-07T06:00:23.060Z,13.31
2018-05-07T06:02:51.401Z,13.28
2018-05-07T06:05:19.693Z,13.24
2018-05-07T06:07:48.363Z,13.35
2018-05-07T06:10:16.672Z,13.46
2018-05-07T06:12:45.004Z,13.51
2018-05-07T06:15:13.314Z,13.44
2018-05-07T06:17:41.664Z,13.55
2018-05-07T06:20:10.081Z,13.61
2018-05-07T06:22:38.393Z,13.82
2018-05-07T06:25:06.725Z,13.66
2018-05-07T06:27:35.050Z,13.75
2018-05-07T06:30:03.429Z,13.91
2018-05-07T06:32:31.800Z,13.93
2018-05-07T06:35:00.181Z,13.93
2018-05-07T06:37:28.504Z,14.06
2018-05-07T06:39:56.879Z,14.12
2018-05-07T06:42:25.172Z,14.17
2018-05-07T06:44:53.508Z,14.31
2018-05-07T06:47:21.822Z,14.25
2018-05-07T06:49:50.158Z,14.25
2018-05-07T06:52:18.483Z,14.54
2018-05-07T06:54:46.909Z,14.50
2018-05-07T06:57:15.234Z,14.70
2018-05-07T06:59:43.669Z,15.02
2018-05-07T07:02:12.060Z,14.94
2018-05-07T07:04:40.427Z,15.13
2018-05-07T07:07:08.793Z,15.20
2018-05-07T07:09:37.133Z,15.18
2018-05-07T07:12:05.457Z,15.24
2018-05-07T07:14:33.827Z,15.30
2018-05-07T07:17:02.157Z,15.44
2018-05-07T07:19:30.475Z,15.58
2018-05-07T07:21:58.809Z,15.58
2018-05-07T07:24:27.137Z,15.57
2018-05-07T07:26:55.482Z,15.79
2018-05-07T07:29:23.791Z,15.73
2018-05-07T07:31:52.210Z,15.67
2018-05-07T07:34:20.534Z,15.65
2018-05-07T07:36:49.005Z,15.86
2018-05-07T07:39:17.405Z,15.80
2018-05-07T07:41:45.745Z,16.03
2018-05-07T07:44:14.039Z,16.11
2018-05-07T07:46:42.377Z,16.28
2018-05-07T07:49:10.721Z,16.11
2018-05-07T07:51:39.145Z,16.30
2018-05-07T07:54:07.471Z,16.16
2018-05-07T07:56:35.792Z,16.15
2018-05-07T07:59:04.129Z,16.30
2018-05-07T08:01:32.447Z,16.43
2018-05-07T08:04:00.983Z,16.46
2018-05-07T08:06:29.301Z,16.67
2018-05-07T08:08:57.750Z,16.71
2018-05-07T08:11:26.058Z,16.82
2018-05-07T08:13:54.488Z,16.84
2018-05-07T08:16:22.881Z,16.85
2018-05-07T08:18:51.213Z,16.86
2018-05-07T08:21:19.532Z,16.99
2018-05-07T08:23:47.883Z,16.85
2018-05-07T08:26:16.211Z,16.84
2018-05-07T08:28:44.558Z,16.93
2018-05-07T08:31:12.869Z,17.05
2018-05-07T08:33:41.201Z,17.28
2018-05-07T08:36:09.581Z,17.35
2018-05-07T08:38:37.923Z,17.26
2018-05-07T08:41:06.245Z,17.50
2018-05-07T08:43:34.609Z,17.48
2018-05-07T08:46:03.000Z,17.47
2018-05-07T08:48:31.312Z,17.61
2018-05-07T08:50:59.703Z,17.59
2018-05-07T08:53:27.996Z,17.68
2018-05-07T08:55:56.445Z,17.64
2018-05-07T08:58:24.796Z,17.79
2018-05-07T09:00:53.172Z,17.92
2018-05-07T09:03:21.492Z,17.75
2018-05-07T09:05:49.821Z,18.08
2018-05-07T09:08:18.146Z,18.08
2018-05-07T09:10:46.491Z,17.91
2018-05-07T09:13:14.799Z,18.01
2018-05-07T09:15:43.141Z,18.08
2018-05-07T09:18:11.452Z,18.12
2018-05-07T09:20:39.778Z,18.34
2018-05-07T09:23:08.109Z,18.22
2018-05-07T09:25:36.436Z,18.27
2018-05-07T09:28:04.770Z,18.30
2018-05-07T09:30:33.106Z,18.35
2018-05-07T09:33:01.481Z,18.39
2018-05-07T09:35:29.820Z,18.67
2018-05-07T09:37:58.146Z,18.98
2018-05-07T09:40:26.481Z,18.91
2018-05-07T09:42:54.827Z,19.23
2018-05-07T09:45:23.123Z,19.04
2018-05-07T09:47:51.457Z,19.26
2018-05-07T09:50:19.821Z,19.76
2018-05-07T09:52:48.173Z,20.01
2018-05-07T09:55:16.573Z,19.96
2018-05-07T09:57:56.925Z,19.72
2018-05-07T10:00:25.257Z,19.82
2018-05-07T10:02:53.600Z,20.05
2018-05-07T10:05:21.919Z,19.77
2018-05-07T10:07:50.252Z,19.64
2018-05-07T10:10:18.586Z,20.07
2018-05-07T10:12:46.995Z,20.30
2018-05-07T10:15:15.378Z,20.17
2018-05-07T10:17:43.761Z,20.36
2018-05-07T10:20:12.082Z,19.98
2018-05-07T10:22:40.405Z,19.96
2018-05-07T10:25:08.727Z,19.99
2018-05-07T10:27:37.165Z,20.11
2018-05-07T10:30:05.559Z,20.08
2018-05-07T10:32:33.968Z,20.06
2018-05-07T10:35:02.292Z,20.24
2018-05-07T10:37:30.616Z,20.55
2018-05-07T10:39:58.948Z,20.56
2018-05-07T10:42:27.337Z,21.03
2018-05-07T10:44:55.712Z,21.10
2018-05-07T10:47:24.026Z,21.34
2018-05-07T10:49:52.374Z,21.18
2018-05-07T10:52:20.693Z,20.85
2018-05-07T10:54:49.065Z,20.60
2018-05-07T10:57:17.361Z,20.76
2018-05-07T10:59:45.705Z,20.89
2018-05-07T11:02:14.053Z,20.97
2018-05-07T11:04:42.381Z,21.44
2018-05-07T11:07:10.712Z,21.73
2018-05-07T11:09:39.055Z,21.86
2018-05-07T11:12:07.388Z,21.99
2018-05-07T11:14:35.740Z,22.14
2018-05-07T11:17:04.087Z,22.04
2018-05-07T11:19:32.396Z,21.77
2018-05-07T11:22:00.771Z,21.51
2018-05-07T11:24:29.084Z,21.48
2018-05-07T11:26:57.475Z,21.90
2018-05-07T11:29:25.789Z,22.52
2018-05-07T11:31:54.147Z,22.76
2018-05-07T11:34:22.437Z,22.74
2018-05-07T11:36:50.785Z,22.94
2018-05-07T11:39:19.108Z,22.68
2018-05-07T11:41:47.435Z,23.17
2018-05-07T11:44:15.813Z,22.57
2018-05-07T11:46:44.136Z,22.81
2018-05-07T11:49:12.568Z,23.15
2018-05-07T11:51:40.903Z,23.60
2018-05-07T11:54:09.291Z,23.97
2018-05-07T11:56:37.600Z,24.07
2018-05-07T11:59:05.942Z,25.08
2018-05-07T12:01:34.344Z,25.76
2018-05-07T12:04:02.762Z,25.52
2018-05-07T12:06:31.076Z,25.58
2018-05-07T12:08:59.493Z,25.84
2018-05-07T12:11:27.734Z,25.60
2018-05-07T12:13:56.079Z,25.76
2018-05-07T12:16:24.481Z,26.21
2018-05-07T12:18:52.821Z,25.51
2018-05-07T12:21:21.130Z,26.20
2018-05-07T12:23:49.478Z,26.26
2018-05-07T12:26:17.789Z,26.94
2018-05-07T12:28:46.132Z,26.92
2018-05-07T12:31:14.549Z,26.55
2018-05-07T12:33:42.880Z,26.86
2018-05-07T12:36:11.201Z,26.45
2018-05-07T12:38:39.584Z,27.11
2018-05-07T12:41:07.895Z,27.82
2018-05-07T12:43:36.279Z,28.02
2018-05-07T12:46:04.584Z,28.91
2018-05-07T12:48:32.900Z,28.17
2018-05-07T12:51:01.276Z,27.92
2018-05-07T12:53:29.586Z,27.87
2018-05-07T12:55:57.923Z,27.38
2018-05-07T12:58:26.343Z,28.00
2018-05-07T13:00:54.724Z,28.54
2018-05-07T13:03:23.086Z,28.98
2018-05-07T13:05:51.499Z,28.78
2018-05-07T13:08:19.763Z,29.03
2018-05-07T13:10:48.096Z,29.33
2018-05-07T13:13:16.405Z,29.11
2018-05-07T13:15:44.737Z,29.50
2018-05-07T13:18:13.129Z,28.66
2018-05-07T13:20:41.461Z,28.28
2018-05-07T13:23:09.780Z,28.66
2018-05-07T13:25:38.112Z,29.46
2018-05-07T13:28:06.429Z,28.78
2018-05-07T13:30:34.776Z,29.72
2018-05-07T13:33:03.091Z,28.95
2018-05-07T13:35:31.464Z,28.92
2018-05-07T13:37:59.845Z,29.72
2018-05-07T13:40:28.173Z,29.59
2018-05-07T13:42:56.516Z,29.51
2018-05-07T13:45:24.877Z,29.34
2018-05-07T13:47:53.291Z,29.08
2018-05-07T13:50:21.647Z,28.82
2018-05-07T13:52:50.005Z,29.42
2018-05-07T13:55:18.326Z,29.34
2018-05-07T13:57:46.653Z,29.40
2018-05-07T14:00:14.984Z,28.77
2018-05-07T14:02:43.335Z,29.25
2018-05-07T14:05:11.708Z,29.12
2018-05-07T14:07:40.093Z,29.21
2018-05-07T14:10:08.464Z,29.78
2018-05-07T14:12:36.873Z,29.53
2018-05-07T14:15:05.201Z,30.35
2018-05-07T14:17:33.633Z,29.71
2018-05-07T14:20:01.958Z,30.55
2018-05-07T14:22:30.278Z,29.17
2018-05-07T14:24:58.621Z,30.00
2018-05-07T14:27:26.925Z,30.15
2018-05-07T14:29:55.287Z,30.28
2018-05-07T14:32:23.593Z,31.04
2018-05-07T14:34:51.956Z,31.84
2018-05-07T14:37:20.312Z,31.80
2018-05-07T14:39:48.653Z,31.46
2018-05-07T14:42:16.972Z,31.45
2018-05-07T14:44:45.384Z,31.26
2018-05-07T14:47:13.686Z,30.89
2018-05-07T14:49:42.034Z,31.07
2018-05-07T14:52:10.351Z,30.89
2018-05-07T14:54:38.669Z,32.02
2018-05-07T14:57:06.993Z,31.99
2018-05-07T14:59:35.401Z,31.66
2018-05-07T15:02:03.789Z,31.83
2018-05-07T15:04:32.105Z,30.44
2018-05-07T15:07:00.441Z,31.18
2018-05-07T15:09:28.813Z,31.33
2018-05-07T15:11:57.149Z,30.71
2018-05-07T15:14:25.465Z,30.58
2018-05-07T15:16:53.828Z,30.74
2018-05-07T15:19:22.228Z,31.19
2018-05-07T15:21:50.567Z,31.20
2018-05-07T15:24:18.876Z,31.11
2018-05-07T15:26:47.271Z,31.94
2018-05-07T15:29:15.706Z,31.78
2018-05-07T15:31:43.989Z,31.37
2018-05-07T15:34:12.313Z,31.87
2018-05-07T15:36:40.679Z,32.00
2018-05-07T15:39:09.005Z,32.63
2018-05-07T15:41:37.441Z,32.78
2018-05-07T15:44:05.843Z,31.66
2018-05-07T15:46:34.193Z,32.08
2018-05-07T15:49:02.557Z,31.11
2018-05-07T15:51:30.922Z,32.17
2018-05-07T15:53:59.280Z,31.78
2018-05-07T15:56:27.604Z,32.32
2018-05-07T15:58:55.966Z,32.11
2018-05-07T16:01:24.279Z,32.75
2018-05-07T16:03:52.623Z,33.10
2018-05-07T16:06:20.964Z,32.91
2018-05-07T16:08:49.406Z,33.64
2018-05-07T16:11:17.695Z,32.54
2018-05-07T16:13:46.014Z,32.57
2018-05-07T16:16:14.333Z,32.79
2018-05-07T16:18:42.690Z,31.92
2018-05-07T16:21:10.983Z,31.40
2018-05-07T16:23:39.317Z,32.79
2018-05-07T16:26:07.670Z,32.61
2018-05-07T16:28:36.001Z,32.44
2018-05-07T16:31:04.431Z,31.67
2018-05-07T16:33:32.725Z,31.97
2018-05-07T16:36:01.033Z,32.52
2018-05-07T16:38:29.404Z,31.62
2018-05-07T16:40:57.706Z,31.74
2018-05-07T16:43:26.108Z,31.84
2018-05-07T16:45:54.438Z,31.78
2018-05-07T16:48:22.764Z,31.35
2018-05-07T16:50:51.098Z,31.99
2018-05-07T16:53:19.477Z,32.23
2018-05-07T16:55:47.850Z,32.22
2018-05-07T16:58:16.172Z,31.89
2018-05-07T17:00:44.497Z,31.89
2018-05-07T17:03:12.817Z,30.91
2018-05-07T17:05:41.141Z,31.51
2018-05-07T17:08:09.549Z,30.68
2018-05-07T17:10:37.920Z,30.11
2018-05-07T17:13:06.298Z,29.56
2018-05-07T17:15:34.625Z,28.22
2018-05-07T17:18:02.958Z,27.48
2018-05-07T17:20:31.276Z,26.03
2018-05-07T17:22:59.704Z,25.28
2018-05-07T17:25:28.094Z,25.09
2018-05-07T17:27:56.432Z,24.50
2018-05-07T17:30:24.793Z,24.18
2018-05-07T17:32:53.186Z,24.01
2018-05-07T17:35:21.502Z,23.89
2018-05-07T17:37:50.604Z,23.92
2018-05-07T17:40:18.987Z,23.80
2018-05-07T17:42:47.358Z,23.74
2018-05-07T17:45:30.327Z,23.35
2018-05-07T17:48:10.740Z,23.18
2018-05-07T17:50:38.971Z,23.34
2018-05-07T17:53:07.305Z,23.11
2018-05-07T17:55:35.666Z,23.14
2018-05-07T17:58:04.042Z,22.89
2018-05-07T18:00:32.356Z,22.77
2018-05-07T18:03:00.699Z,22.70
2018-05-07T18:05:29.024Z,22.74
2018-05-07T18:07:57.376Z,22.51
2018-05-07T18:10:25.746Z,22.55
2018-05-07T18:12:54.047Z,22.50
2018-05-07T18:15:22.426Z,22.42
2018-05-07T18:17:50.880Z,22.34
2018-05-07T18:20:19.224Z,22.11
2018-05-07T18:22:47.626Z,22.13
2018-05-07T18:25:15.958Z,21.99
2018-05-07T18:27:44.285Z,21.84
2018-05-07T18:30:12.613Z,21.57
2018-05-07T18:32:41.116Z,21.48
2018-05-07T18:35:09.404Z,21.51
2018-05-07T18:37:37.713Z,21.42
2018-05-07T18:40:06.072Z,21.28
2018-05-07T18:42:34.389Z,21.18
2018-05-07T18:45:02.877Z,21.05
2018-05-07T18:47:31.186Z,20.89
2018-05-07T18:49:59.534Z,20.89
2018-05-07T18:52:27.854Z,20.88
2018-05-07T18:54:56.306Z,20.61
2018-05-07T18:57:24.625Z,20.69
2018-05-07T18:59:52.997Z,20.60
2018-05-07T19:02:21.314Z,20.46
2018-05-07T19:04:49.743Z,20.36
2018-05-07T19:07:18.067Z,20.31
2018-05-07T19:09:46.409Z,20.36
2018-05-07T19:12:14.718Z,20.26
2018-05-07T19:14:43.025Z,20.09
2018-05-07T19:17:11.364Z,19.96
2018-05-07T19:19:39.782Z,20.02
2018-05-07T19:22:08.186Z,20.14
2018-05-07T19:24:36.564Z,19.77
2018-05-07T19:27:05.000Z,19.51
2018-05-07T19:29:33.326Z,19.54
2018-05-07T19:32:02.764Z,19.62
2018-05-07T19:34:31.990Z,19.67
2018-05-07T19:37:00.386Z,19.41
2018-05-07T19:39:28.705Z,19.39
2018-05-07T19:41:57.697Z,19.34
2018-05-07T19:44:26.057Z,19.46
2018-05-07T19:46:54.409Z,19.47
2018-05-07T19:49:22.731Z,19.34
2018-05-07T19:51:51.108Z,19.15
2018-05-07T19:54:19.423Z,19.11
2018-05-07T19:56:47.749Z,19.06
2018-05-07T19:59:16.260Z,19.29
2018-05-07T20:01:44.620Z,19.09
2018-05-07T20:04:12.952Z,19.29
2018-05-07T20:06:41.661Z,19.24
2018-05-07T20:09:09.997Z,18.83
2018-05-07T20:11:38.314Z,18.82
2018-05-07T20:14:06.663Z,18.81
2018-05-07T20:16:34.991Z,18.83
2018-05-07T20:19:03.326Z,18.85
2018-05-07T20:21:31.645Z,18.84
2018-05-07T20:23:59.988Z,18.81
2018-05-07T20:26:28.298Z,18.70
2018-05-07T20:28:56.653Z,18.24
2018-05-07T20:31:25.049Z,18.44
2018-05-07T20:33:53.393Z,18.50
2018-05-07T20:36:21.713Z,18.69
2018-05-07T20:38:50.069Z,18.71
2018-05-07T20:41:18.385Z,18.74
2018-05-07T20:43:46.818Z,18.74
2018-05-07T20:46:15.125Z,18.78
2018-05-07T20:48:43.474Z,18.71
2018-05-07T20:51:11.853Z,18.77
2018-05-07T20:53:40.213Z,18.74
2018-05-07T20:56:08.530Z,18.75
2018-05-07T20:58:36.999Z,18.73
2018-05-07T21:01:05.345Z,18.63
2018-05-07T21:03:33.751Z,18.54
2018-05-07T21:06:02.084Z,18.45
2018-05-07T21:08:30.408Z,18.41
2018-05-07T21:10:58.761Z,18.35
2018-05-07T21:13:27.149Z,18.36
2018-05-07T21:15:55.481Z,18.37
2018-05-07T21:18:23.818Z,18.40
2018-05-07T21:20:52.148Z,18.43
2018-05-07T21:23:20.461Z,18.25
2018-05-07T21:25:48.792Z,18.26
2018-05-07T21:28:17.132Z,18.29
2018-05-07T21:30:45.504Z,18.25
2018-05-07T21:33:13.881Z,18.07
2018-05-07T21:35:42.340Z,18.15
2018-05-07T21:38:10.556Z,18.03
2018-05-07T21:40:38.918Z,18.06
2018-05-07T21:43:07.289Z,17.97
2018-05-07T21:45:35.663Z,18.02
2018-05-07T21:48:03.965Z,18.06
2018-05-07T21:50:32.340Z,17.93
2018-05-07T21:53:00.694Z,17.92
2018-05-07T21:55:29.072Z,17.89
2018-05-07T21:57:57.394Z,18.15
2018-05-07T22:00:26.650Z,18.09
2018-05-07T22:02:54.967Z,17.68
2018-05-07T22:05:23.297Z,17.70
2018-05-07T22:07:51.618Z,17.75
2018-05-07T22:10:19.958Z,17.87
2018-05-07T22:12:48.300Z,17.86
2018-05-07T22:15:16.605Z,17.89
2018-05-07T22:17:44.985Z,17.88
2018-05-07T22:20:13.305Z,17.98
2018-05-07T22:22:41.654Z,17.98
2018-05-07T22:25:09.965Z,17.93
2018-05-07T22:27:38.408Z,17.76
2018-05-07T22:30:06.719Z,17.85
2018-05-07T22:32:35.089Z,17.73
2018-05-07T22:35:03.545Z,17.65
2018-05-07T22:37:31.977Z,17.57
2018-05-07T22:40:00.374Z,17.49
2018-05-07T22:42:28.695Z,17.39
2018-05-07T22:44:57.046Z,17.32
2018-05-07T22:47:25.385Z,17.17
2018-05-07T22:49:53.686Z,17.07
2018-05-07T22:52:22.099Z,17.23
2018-05-07T22:54:50.326Z,17.20
2018-05-07T22:57:18.638Z,17.12
2018-05-07T22:59:46.965Z,17.05
2018-05-07T23:02:15.493Z,17.13
2018-05-07T23:04:43.874Z,17.08
2018-05-07T23:07:12.186Z,17.04
2018-05-07T23:09:40.543Z,17.00
2018-05-07T23:12:08.852Z,16.85
2018-05-07T23:14:37.288Z,16.75
2018-05-07T23:17:05.609Z,16.78
2018-05-07T23:19:34.041Z,16.75
2018-05-07T23:22:02.433Z,16.70
2018-05-07T23:24:30.803Z,16.64
2018-05-07T23:26:59.173Z,16.57
2018-05-07T23:29:27.557Z,16.51
2018-05-07T23:31:55.876Z,16.47
2018-05-07T23:34:24.322Z,16.45
2018-05-07T23:36:52.692Z,16.33
2018-05-07T23:39:21.012Z,16.27
2018-05-07T23:41:49.336Z,16.22
2018-05-07T23:44:17.668Z,16.14
2018-05-07T23:46:45.976Z,16.11
2018-05-07T23:49:14.394Z,16.04
2018-05-07T23:51:42.696Z,16.00
2018-05-07T23:54:11.036Z,15.94
2018-05-07T23:56:39.408Z,15.79
2018-05-07T23:59:07.734Z,15.72
